createdAt,value
2022-09-16T00:00:55.530Z,3.30
2022-09-16T00:03:23.662Z,3.53
2022-09-16T00:05:52.925Z,3.58
2022-09-16T00:08:21.227Z,3.30
2022-09-16T00:10:49.458Z,3.25
2022-09-16T00:13:17.523Z,3.45
2022-09-16T00:15:45.826Z,3.00
2022-09-16T00:18:15.339Z,2.80
2022-09-16T00:20:46.676Z,3.10
2022-09-16T00:23:14.761Z,2.97
2022-09-16T00:25:42.873Z,3.20
2022-09-16T00:28:10.929Z,3.17
2022-09-16T00:30:39.024Z,3.15
2022-09-16T00:33:07.112Z,3.05
2022-09-16T00:35:36.569Z,2.90
2022-09-16T00:38:04.697Z,3.10
2022-09-16T00:40:32.839Z,2.90
2022-09-16T00:43:01.252Z,2.90
2022-09-16T00:45:31.754Z,2.83
2022-09-16T00:48:00.801Z,2.70
2022-09-16T00:50:32.458Z,2.70
2022-09-16T00:53:02.019Z,2.60
2022-09-16T00:55:31.541Z,2.88
2022-09-16T00:58:04.173Z,2.35
2022-09-16T01:00:33.757Z,2.45
2022-09-16T01:03:01.854Z,2.70
2022-09-16T01:05:30.062Z,2.70
2022-09-16T01:07:58.376Z,2.28
2022-09-16T01:10:27.866Z,2.58
2022-09-16T01:12:56.853Z,2.55
2022-09-16T01:15:25.592Z,2.63
2022-09-16T01:17:58.891Z,2.70
2022-09-16T01:21:09.128Z,2.33
2022-09-16T01:24:04.142Z,2.85
2022-09-16T01:27:02.720Z,2.30
2022-09-16T01:29:49.278Z,2.63
2022-09-16T01:32:20.592Z,2.10
2022-09-16T01:34:51.533Z,2.20
2022-09-16T01:37:23.891Z,2.35
2022-09-16T01:39:59.149Z,2.10
2022-09-16T01:42:31.158Z,2.10
2022-09-16T01:45:01.944Z,2.50
2022-09-16T01:47:35.256Z,2.17
2022-09-16T01:50:07.095Z,2.40
2022-09-16T01:52:43.111Z,2.05
2022-09-16T01:55:12.464Z,2.10
2022-09-16T01:57:42.510Z,2.38
2022-09-16T02:00:11.921Z,2.20
2022-09-16T02:02:43.134Z,2.28
2022-09-16T02:05:13.140Z,2.17
2022-09-16T02:07:44.820Z,2.03
2022-09-16T02:10:16.426Z,2.00
2022-09-16T02:12:44.605Z,1.98
2022-09-16T02:15:18.734Z,1.70
2022-09-16T02:17:50.297Z,2.03
2022-09-16T02:20:21.009Z,2.17
2022-09-16T02:22:50.175Z,1.80
2022-09-16T02:25:18.772Z,2.00
2022-09-16T02:27:48.347Z,1.88
2022-09-16T02:30:17.619Z,1.85
2022-09-16T02:32:48.610Z,2.00
2022-09-16T02:35:17.743Z,1.95
2022-09-16T02:37:47.491Z,2.05
2022-09-16T02:40:17.350Z,1.70
2022-09-16T02:42:45.416Z,1.83
2022-09-16T02:45:13.619Z,1.80
2022-09-16T02:47:46.207Z,1.83
2022-09-16T02:50:17.317Z,1.50
2022-09-16T02:52:46.400Z,1.75
2022-09-16T02:55:16.607Z,1.77
2022-09-16T02:57:44.720Z,1.88
2022-09-16T03:00:13.246Z,1.80
2022-09-16T03:02:41.363Z,1.80
2022-09-16T03:05:09.763Z,1.80
2022-09-16T03:07:39.968Z,1.70
2022-09-16T03:10:08.476Z,1.52
2022-09-16T03:12:49.695Z,1.73
2022-09-16T03:15:29.659Z,1.70
2022-09-16T03:18:15.045Z,1.98
2022-09-16T03:20:45.750Z,1.50
2022-09-16T03:23:20.056Z,1.85
2022-09-16T03:25:53.121Z,1.83
2022-09-16T03:28:24.219Z,1.63
2022-09-16T03:30:59.508Z,1.65
2022-09-16T03:33:29.537Z,1.80
2022-09-16T03:35:58.588Z,1.52
2022-09-16T03:38:28.499Z,1.85
2022-09-16T03:40:56.566Z,1.50
2022-09-16T03:43:24.629Z,1.52
2022-09-16T03:45:52.911Z,1.60
2022-09-16T03:48:21.044Z,1.70
2022-09-16T03:50:49.249Z,1.50
2022-09-16T03:53:17.601Z,1.50
2022-09-16T03:55:49.418Z,1.60
2022-09-16T03:58:17.588Z,1.50
2022-09-16T04:00:50.836Z,1.48
2022-09-16T04:03:19.047Z,1.52
2022-09-16T04:05:47.580Z,1.67
2022-09-16T04:08:15.669Z,1.60
2022-09-16T04:10:43.816Z,1.40
2022-09-16T04:13:13.405Z,1.35
2022-09-16T04:15:41.516Z,1.40
2022-09-16T04:18:09.701Z,1.50
2022-09-16T04:20:37.805Z,1.77
2022-09-16T04:23:05.896Z,1.35
2022-09-16T04:25:34.147Z,1.80
2022-09-16T04:28:02.660Z,1.33
2022-09-16T04:30:32.115Z,1.45
2022-09-16T04:33:00.260Z,1.33
2022-09-16T04:35:28.305Z,1.40
2022-09-16T04:37:56.433Z,1.60
2022-09-16T04:40:24.937Z,1.50
2022-09-16T04:42:53.087Z,1.60
2022-09-16T04:45:21.106Z,1.67
2022-09-16T04:47:50.612Z,1.52
2022-09-16T04:50:18.872Z,1.42
2022-09-16T04:52:47.107Z,1.63
2022-09-16T04:55:15.320Z,1.60
2022-09-16T04:57:43.661Z,1.52
2022-09-16T05:00:12.841Z,1.40
2022-09-16T05:02:41.070Z,1.55
2022-09-16T05:05:12.011Z,1.75
2022-09-16T05:07:40.321Z,1.40
2022-09-16T05:10:09.438Z,1.60
2022-09-16T05:12:37.601Z,1.77
2022-09-16T05:15:06.376Z,1.52
2022-09-16T05:17:50.343Z,1.60
2022-09-16T05:20:20.830Z,1.65
2022-09-16T05:22:51.256Z,1.40
2022-09-16T05:25:19.642Z,1.80
2022-09-16T05:27:48.108Z,1.58
2022-09-16T05:30:17.439Z,1.80
2022-09-16T05:32:45.515Z,1.95
2022-09-16T05:35:14.039Z,1.90
2022-09-16T05:37:43.474Z,2.10
2022-09-16T05:40:12.036Z,2.10
2022-09-16T05:42:40.133Z,1.60
2022-09-16T05:45:09.706Z,1.60
2022-09-16T05:47:37.750Z,2.25
2022-09-16T05:50:06.541Z,4.28
2022-09-16T05:52:34.568Z,5.40
2022-09-16T05:55:04.106Z,5.05
2022-09-16T05:57:32.260Z,4.25
2022-09-16T06:00:00.336Z,4.13
2022-09-16T06:02:28.411Z,3.25
2022-09-16T06:04:56.534Z,3.40
2022-09-16T06:07:24.679Z,3.08
2022-09-16T06:09:53.133Z,6.35
2022-09-16T06:12:22.535Z,6.85
2022-09-16T06:14:50.601Z,4.72
2022-09-16T06:17:18.937Z,4.53
2022-09-16T06:19:47.003Z,3.53
2022-09-16T06:22:15.030Z,3.50
2022-09-16T06:24:43.154Z,3.20
2022-09-16T06:27:11.211Z,2.75
2022-09-16T06:29:40.988Z,2.90
2022-09-16T06:32:09.037Z,2.95
2022-09-16T06:34:37.124Z,5.50
2022-09-16T06:37:05.306Z,4.97
2022-09-16T06:39:33.479Z,4.30
2022-09-16T06:42:01.610Z,4.00
2022-09-16T06:44:42.850Z,3.22
2022-09-16T06:47:11.081Z,4.30
2022-09-16T06:49:39.182Z,3.83
2022-09-16T06:52:09.532Z,4.90
2022-09-16T06:54:37.613Z,4.95
2022-09-16T06:57:11.392Z,7.80
2022-09-16T06:59:40.588Z,10.40
2022-09-16T07:02:10.874Z,9.50
2022-09-16T07:04:39.055Z,8.35
2022-09-16T07:07:10.098Z,9.35
2022-09-16T07:09:38.773Z,7.95
2022-09-16T07:12:07.069Z,7.75
2022-09-16T07:14:35.164Z,5.78
2022-09-16T07:17:03.490Z,6.55
2022-09-16T07:19:33.059Z,8.07
2022-09-16T07:22:01.130Z,15.15
2022-09-16T07:24:29.189Z,9.02
2022-09-16T07:26:57.297Z,7.97
2022-09-16T07:29:25.430Z,8.18
2022-09-16T07:31:53.550Z,7.47
2022-09-16T07:34:21.614Z,7.25
2022-09-16T07:36:51.045Z,7.25
2022-09-16T07:39:19.649Z,6.28
2022-09-16T07:41:48.660Z,6.85
2022-09-16T07:44:17.405Z,7.32
2022-09-16T07:46:45.558Z,6.55
2022-09-16T07:49:14.877Z,6.43
2022-09-16T07:51:42.994Z,6.30
2022-09-16T07:54:13.342Z,6.50
2022-09-16T07:56:41.631Z,5.93
2022-09-16T07:59:15.809Z,6.45
2022-09-16T08:01:46.988Z,8.40
2022-09-16T08:04:15.140Z,8.80
2022-09-16T08:06:43.211Z,8.43
2022-09-16T08:09:37.154Z,7.20
2022-09-16T08:12:01.031Z,7.45
2022-09-16T08:14:29.126Z,7.88
2022-09-16T08:16:57.230Z,8.50
2022-09-16T08:19:25.285Z,8.25
2022-09-16T08:21:53.366Z,8.27
2022-09-16T08:24:23.058Z,9.00
2022-09-16T08:26:51.230Z,7.70
2022-09-16T08:29:19.424Z,7.95
2022-09-16T08:31:47.599Z,7.45
2022-09-16T08:34:16.869Z,8.23
2022-09-16T08:36:45.024Z,7.60
2022-09-16T08:39:13.087Z,7.57
2022-09-16T08:41:49.698Z,8.40
2022-09-16T08:44:23.302Z,8.48
2022-09-16T08:46:52.813Z,8.35
2022-09-16T08:49:26.847Z,6.65
2022-09-16T08:51:55.187Z,6.80
2022-09-16T08:54:28.118Z,7.80
2022-09-16T08:57:01.041Z,8.80
2022-09-16T08:59:31.755Z,9.30
2022-09-16T09:02:09.301Z,10.35
2022-09-16T09:04:37.934Z,10.57
2022-09-16T09:07:09.447Z,11.60
2022-09-16T09:09:45.462Z,12.27
2022-09-16T09:12:17.086Z,12.57
2022-09-16T09:14:55.136Z,13.68
2022-09-16T09:17:25.930Z,13.18
2022-09-16T09:20:04.475Z,14.63
2022-09-16T09:22:41.806Z,15.25
2022-09-16T09:25:24.248Z,12.65
2022-09-16T09:28:00.689Z,16.08
2022-09-16T09:30:29.449Z,17.48
2022-09-16T09:33:41.601Z,20.08
2022-09-16T09:36:30.902Z,21.48
2022-09-16T09:39:20.070Z,18.13
2022-09-16T09:41:49.374Z,14.55
2022-09-16T09:44:34.382Z,15.85
2022-09-16T09:47:04.358Z,13.60
2022-09-16T09:49:34.029Z,17.73
2022-09-16T09:52:03.713Z,16.85
2022-09-16T09:54:32.852Z,17.48
2022-09-16T09:57:03.047Z,11.93
2022-09-16T09:59:34.522Z,7.80
2022-09-16T10:02:02.870Z,5.22
2022-09-16T10:04:31.631Z,4.57
2022-09-16T10:06:59.791Z,3.65
2022-09-16T10:09:28.014Z,3.60
2022-09-16T10:11:56.823Z,3.10
2022-09-16T10:14:26.818Z,2.50
2022-09-16T10:16:56.247Z,2.10
2022-09-16T10:19:25.463Z,2.40
2022-09-16T10:21:54.807Z,2.83
2022-09-16T10:24:31.382Z,3.10
2022-09-16T10:26:59.814Z,3.00
2022-09-16T10:29:27.958Z,2.70
2022-09-16T10:31:59.426Z,2.28
2022-09-16T10:34:34.988Z,8.13
2022-09-16T10:37:04.745Z,7.63
2022-09-16T10:39:32.959Z,7.72
2022-09-16T10:42:01.558Z,7.03
2022-09-16T10:44:30.439Z,7.00
2022-09-16T10:47:01.826Z,6.80
2022-09-16T10:49:36.892Z,6.18
2022-09-16T10:52:10.325Z,5.50
2022-09-16T10:54:38.409Z,6.28
2022-09-16T10:57:23.344Z,6.35
2022-09-16T11:00:02.269Z,5.57
2022-09-16T11:02:53.706Z,6.40
2022-09-16T11:05:42.485Z,6.00
2022-09-16T11:08:14.338Z,4.32
2022-09-16T11:10:46.378Z,3.00
2022-09-16T11:13:35.294Z,4.97
2022-09-16T11:16:24.033Z,5.43
2022-09-16T11:18:58.887Z,5.40
2022-09-16T11:21:45.252Z,5.47
2022-09-16T11:24:21.101Z,5.18
2022-09-16T11:26:52.942Z,5.13
2022-09-16T11:29:41.684Z,5.22
2022-09-16T11:32:14.627Z,4.47
2022-09-16T11:34:53.953Z,4.53
2022-09-16T11:37:24.729Z,4.65
2022-09-16T11:40:02.351Z,3.95
2022-09-16T11:42:33.854Z,4.38
2022-09-16T11:45:07.579Z,4.32
2022-09-16T11:47:43.019Z,3.85
2022-09-16T11:50:21.411Z,3.75
2022-09-16T11:53:05.805Z,3.90
2022-09-16T11:55:42.366Z,3.70
2022-09-16T11:58:16.571Z,3.72
2022-09-16T12:00:45.420Z,3.80
2022-09-16T12:03:18.837Z,3.25
2022-09-16T12:05:53.560Z,3.53
2022-09-16T12:08:24.079Z,3.30
2022-09-16T12:10:53.719Z,3.00
2022-09-16T12:13:23.656Z,3.05
2022-09-16T12:15:53.291Z,2.90
2022-09-16T12:18:23.655Z,3.22
2022-09-16T12:20:54.713Z,3.10
2022-09-16T12:23:25.357Z,3.22
2022-09-16T12:26:01.414Z,3.25
2022-09-16T12:28:33.181Z,3.00
2022-09-16T12:31:04.461Z,3.03
2022-09-16T12:33:35.360Z,3.28
2022-09-16T12:36:06.501Z,2.97
2022-09-16T12:38:34.653Z,2.92
2022-09-16T12:41:10.874Z,3.20
2022-09-16T12:44:30.527Z,3.10
2022-09-16T12:47:05.949Z,2.90
2022-09-16T12:50:09.440Z,3.33
2022-09-16T12:52:55.721Z,3.10
2022-09-16T12:55:53.905Z,3.13
2022-09-16T12:59:02.655Z,2.78
2022-09-16T13:01:31.845Z,3.15
2022-09-16T13:04:01.883Z,3.10
2022-09-16T13:06:31.128Z,2.80
2022-09-16T13:09:11.401Z,2.95
2022-09-16T13:12:24.157Z,2.92
2022-09-16T13:14:30.157Z,3.08
2022-09-16T13:16:59.427Z,3.30
2022-09-16T13:19:36.439Z,2.70
2022-09-16T13:22:14.295Z,3.05
2022-09-16T13:24:45.754Z,2.70
2022-09-16T13:27:32.846Z,2.80
2022-09-16T13:30:26.954Z,2.92
2022-09-16T13:33:16.894Z,3.17
2022-09-16T13:35:45.897Z,2.92
2022-09-16T13:38:26.270Z,3.10
2022-09-16T13:40:57.135Z,2.70
2022-09-16T13:43:36.078Z,3.00
2022-09-16T13:46:06.934Z,5.65
2022-09-16T13:48:41.526Z,5.47
2022-09-16T13:51:15.109Z,5.47
2022-09-16T13:53:46.037Z,5.55
2022-09-16T13:56:50.498Z,4.82
2022-09-16T13:59:26.712Z,4.30
2022-09-16T14:02:00.463Z,4.78
2022-09-16T14:04:36.246Z,4.50
2022-09-16T14:07:12.514Z,4.30
2022-09-16T14:09:47.925Z,4.65
2022-09-16T14:12:28.795Z,4.20
2022-09-16T14:14:58.901Z,4.75
2022-09-16T14:17:28.575Z,5.20
2022-09-16T14:19:58.528Z,4.10
2022-09-16T14:22:27.636Z,4.28
2022-09-16T14:25:06.317Z,3.92
2022-09-16T14:27:39.508Z,3.90
2022-09-16T14:30:14.282Z,3.70
2022-09-16T14:32:42.377Z,4.00
2022-09-16T14:35:12.184Z,3.80
2022-09-16T14:37:40.612Z,3.97
2022-09-16T14:40:13.212Z,3.95
2022-09-16T14:42:44.255Z,4.13
2022-09-16T14:45:16.427Z,3.72
2022-09-16T14:47:51.701Z,3.65
2022-09-16T14:50:21.714Z,3.80
2022-09-16T14:52:54.806Z,3.50
2022-09-16T14:55:23.985Z,3.50
2022-09-16T14:57:53.453Z,3.33
2022-09-16T15:00:21.845Z,3.70
2022-09-16T15:02:51.208Z,3.83
2022-09-16T15:05:23.069Z,3.67
2022-09-16T15:08:12.716Z,3.38
2022-09-16T15:10:54.955Z,16.20
2022-09-16T15:13:26.837Z,63.97
2022-09-16T15:15:56.357Z,69.72
2022-09-16T15:18:27.043Z,67.50
2022-09-16T15:21:01.170Z,58.72
2022-09-16T15:23:29.289Z,39.45
2022-09-16T15:25:58.390Z,32.20
2022-09-16T15:28:27.978Z,33.13
2022-09-16T15:30:58.338Z,33.90
2022-09-16T15:33:32.426Z,32.35
2022-09-16T15:36:01.751Z,31.45
2022-09-16T15:38:30.127Z,31.85
2022-09-16T15:41:05.075Z,30.70
2022-09-16T15:43:39.905Z,31.02
2022-09-16T15:46:16.321Z,110.22
2022-09-16T15:48:45.541Z,135.13
2022-09-16T15:51:28.356Z,143.30
2022-09-16T15:53:59.672Z,122.65
2022-09-16T15:56:29.899Z,112.35
2022-09-16T15:59:00.790Z,103.57
2022-09-16T16:01:41.495Z,101.25
2022-09-16T16:04:10.578Z,96.65
2022-09-16T16:06:49.697Z,96.45
2022-09-16T16:09:42.686Z,94.53
2022-09-16T16:12:14.592Z,89.25
2022-09-16T16:14:44.371Z,87.32
2022-09-16T16:17:14.628Z,86.13
2022-09-16T16:19:43.566Z,84.05
2022-09-16T16:22:12.108Z,81.57
2022-09-16T16:24:40.475Z,77.90
2022-09-16T16:27:08.788Z,79.35
2022-09-16T16:29:38.858Z,78.32
2022-09-16T16:32:09.601Z,76.53
2022-09-16T16:34:38.340Z,71.93
2022-09-16T16:37:07.449Z,72.15
2022-09-16T16:39:35.741Z,59.88
2022-09-16T16:42:05.567Z,64.72
2022-09-16T16:44:33.681Z,78.43
2022-09-16T16:47:01.915Z,202.15
2022-09-16T16:49:31.431Z,199.07
2022-09-16T16:51:59.517Z,184.05
2022-09-16T16:54:27.816Z,159.98
2022-09-16T16:56:56.022Z,142.55
2022-09-16T16:59:24.046Z,137.30
2022-09-16T17:01:53.262Z,129.77
2022-09-16T17:04:21.603Z,130.20
2022-09-16T17:07:08.242Z,127.72
2022-09-16T17:09:39.302Z,127.43
2022-09-16T17:12:09.343Z,133.98
2022-09-16T17:14:37.585Z,133.10
2022-09-16T17:17:05.820Z,249.90
2022-09-16T17:19:34.041Z,292.40
2022-09-16T17:22:03.445Z,288.33
2022-09-16T17:24:31.726Z,258.38
2022-09-16T17:27:00.305Z,247.52
2022-09-16T17:29:28.441Z,233.93
2022-09-16T17:31:57.200Z,216.93
2022-09-16T17:34:26.407Z,211.50
2022-09-16T17:36:54.651Z,195.50
2022-09-16T17:39:24.239Z,171.18
2022-09-16T17:41:52.245Z,175.50
2022-09-16T17:44:20.439Z,178.32
2022-09-16T17:46:48.849Z,174.32
2022-09-16T17:49:17.791Z,178.23
2022-09-16T17:51:46.168Z,164.07
2022-09-16T17:54:14.282Z,165.55
2022-09-16T17:56:44.162Z,163.00
2022-09-16T17:59:12.497Z,160.25
2022-09-16T18:01:40.837Z,154.63
2022-09-16T18:04:08.881Z,155.25
2022-09-16T18:06:41.786Z,149.02
2022-09-16T18:09:09.996Z,174.25
2022-09-16T18:11:38.751Z,221.32
2022-09-16T18:14:09.325Z,256.58
2022-09-16T18:16:37.578Z,234.15
2022-09-16T18:19:05.809Z,254.40
2022-09-16T18:21:34.078Z,233.75
2022-09-16T18:24:03.653Z,221.85
2022-09-16T18:26:31.788Z,206.75
2022-09-16T18:29:10.449Z,198.63
2022-09-16T18:31:41.289Z,202.02
2022-09-16T18:34:10.307Z,197.68
2022-09-16T18:36:39.496Z,193.85
2022-09-16T18:39:08.857Z,189.45
2022-09-16T18:41:38.314Z,188.35
2022-09-16T18:44:07.731Z,187.35
2022-09-16T18:46:38.347Z,183.93
2022-09-16T18:49:08.845Z,184.65
2022-09-16T18:51:37.918Z,177.90
2022-09-16T18:54:07.507Z,186.48
2022-09-16T18:56:36.627Z,117.78
2022-09-16T18:59:23.704Z,178.70
2022-09-16T19:01:53.014Z,180.68
2022-09-16T19:04:24.044Z,176.90
2022-09-16T19:06:54.033Z,177.00
2022-09-16T19:09:23.461Z,170.45
2022-09-16T19:11:55.198Z,162.60
2022-09-16T19:14:27.463Z,164.13
2022-09-16T19:16:56.024Z,165.50
2022-09-16T19:19:25.994Z,167.27
2022-09-16T19:21:54.262Z,161.50
2022-09-16T19:24:24.139Z,162.40
2022-09-16T19:26:54.019Z,164.13
2022-09-16T19:29:23.503Z,159.77
2022-09-16T19:31:53.052Z,159.48
2022-09-16T19:34:21.515Z,143.95
2022-09-16T19:36:51.799Z,180.23
2022-09-16T19:39:21.301Z,269.92
2022-09-16T19:41:49.761Z,239.00
2022-09-16T19:44:18.750Z,242.68
2022-09-16T19:46:49.463Z,217.30
2022-09-16T19:49:20.029Z,207.68
2022-09-16T19:51:48.488Z,204.80
2022-09-16T19:54:18.584Z,203.73
2022-09-16T19:56:50.403Z,199.27
2022-09-16T19:59:19.767Z,195.57
2022-09-16T20:01:48.129Z,194.55
2022-09-16T20:04:19.995Z,193.25
2022-09-16T20:06:48.454Z,185.02
2022-09-16T20:09:18.172Z,190.25
2022-09-16T20:11:47.997Z,185.13
2022-09-16T20:14:19.103Z,185.73
2022-09-16T20:16:47.614Z,173.43
2022-09-16T20:19:16.809Z,175.02
2022-09-16T20:21:45.456Z,155.77
2022-09-16T20:24:15.411Z,154.65
2022-09-16T20:26:45.021Z,153.25
2022-09-16T20:29:13.058Z,154.50
2022-09-16T20:31:41.206Z,151.43
2022-09-16T20:34:09.261Z,141.32
2022-09-16T20:36:38.232Z,114.32
2022-09-16T20:39:06.381Z,78.95
2022-09-16T20:41:35.069Z,105.07
2022-09-16T20:44:05.262Z,104.65
2022-09-16T20:46:34.127Z,104.60
2022-09-16T20:49:03.415Z,98.30
2022-09-16T20:51:32.511Z,94.47
2022-09-16T20:54:06.263Z,90.60
2022-09-16T20:56:38.229Z,88.40
2022-09-16T20:59:08.765Z,84.32
2022-09-16T21:01:37.359Z,82.43
2022-09-16T21:04:06.041Z,78.90
2022-09-16T21:06:34.729Z,73.95
2022-09-16T21:09:04.582Z,72.00
2022-09-16T21:11:33.260Z,68.07
2022-09-16T21:14:02.149Z,65.10
2022-09-16T21:16:32.280Z,63.00
2022-09-16T21:19:03.254Z,60.97
2022-09-16T21:21:31.762Z,58.53
2022-09-16T21:24:00.497Z,56.50
2022-09-16T21:26:29.708Z,54.15
2022-09-16T21:28:58.634Z,52.13
2022-09-16T21:31:28.369Z,51.38
2022-09-16T21:33:59.087Z,50.40
2022-09-16T21:36:27.941Z,47.20
2022-09-16T21:38:56.059Z,46.28
2022-09-16T21:41:24.534Z,45.25
2022-09-16T21:43:55.518Z,43.42
2022-09-16T21:46:25.872Z,40.92
2022-09-16T21:48:55.049Z,41.00
2022-09-16T21:51:24.680Z,41.35
2022-09-16T21:53:52.776Z,39.28
2022-09-16T21:56:21.954Z,37.50
2022-09-16T21:58:50.721Z,37.33
2022-09-16T22:01:19.966Z,33.70
2022-09-16T22:03:49.094Z,35.15
2022-09-16T22:06:18.383Z,33.40
2022-09-16T22:08:49.090Z,31.75
2022-09-16T22:11:18.590Z,31.58
2022-09-16T22:13:46.736Z,31.10
2022-09-16T22:16:15.685Z,30.25
2022-09-16T22:18:43.853Z,28.38
2022-09-16T22:21:14.525Z,27.60
2022-09-16T22:23:42.798Z,26.88
2022-09-16T22:26:13.507Z,26.55
2022-09-16T22:28:41.770Z,25.98
2022-09-16T22:31:10.271Z,23.88
2022-09-16T22:33:39.144Z,24.30
2022-09-16T22:36:09.043Z,23.63
2022-09-16T22:38:37.402Z,21.80
2022-09-16T22:41:06.515Z,21.42
2022-09-16T22:43:36.983Z,20.80
2022-09-16T22:46:05.915Z,20.70
2022-09-16T22:48:33.982Z,20.13
2022-09-16T22:51:02.358Z,19.15
2022-09-16T22:53:30.611Z,18.88
2022-09-16T22:55:59.151Z,18.58
2022-09-16T22:58:27.358Z,18.75
2022-09-16T23:01:03.090Z,18.40
2022-09-16T23:03:31.450Z,17.05
2022-09-16T23:06:00.525Z,16.58
2022-09-16T23:08:28.906Z,15.73
2022-09-16T23:10:57.033Z,15.63
2022-09-16T23:13:25.378Z,15.35
2022-09-16T23:15:54.844Z,14.15
2022-09-16T23:18:24.538Z,14.25
2022-09-16T23:20:59.491Z,13.68
2022-09-16T23:23:27.811Z,13.45
2022-09-16T23:25:55.941Z,13.93
2022-09-16T23:28:24.244Z,13.10
2022-09-16T23:30:52.685Z,12.85
2022-09-16T23:33:20.792Z,12.38
2022-09-16T23:35:51.211Z,12.10
2022-09-16T23:38:19.259Z,12.32
2022-09-16T23:40:47.913Z,11.70
2022-09-16T23:43:16.002Z,11.82
2022-09-16T23:45:44.144Z,11.13
2022-09-16T23:48:12.198Z,10.68
2022-09-16T23:50:40.293Z,10.85
2022-09-16T23:53:09.851Z,10.27
2022-09-16T23:55:42.047Z,9.75
2022-09-16T23:58:10.297Z,9.57
